sensor_id;sensor_type;location;lat;lon;timestamp;P1;durP1;ratioP1;P2;durP2;ratioP2
48941;SDS011;35340;52.378;4.648;2022-09-17T08:52:47;17.65;;;5.93;;
48941;SDS011;35340;52.378;4.648;2022-09-17T09:27:14;11.73;;;3.55;;
48941;SDS011;35340;52.378;4.648;2022-09-17T10:44:54;6.47;;;2.10;;
48941;SDS011;35340;52.378;4.648;2022-09-17T10:49:56;6.43;;;2.22;;
48941;SDS011;35340;52.378;4.648;2022-09-17T11:04:21;7.38;;;2.05;;
48941;SDS011;35340;52.378;4.648;2022-09-17T11:12:59;7.25;;;2.13;;
48941;SDS011;35340;52.378;4.648;2022-09-17T13:39:47;10.23;;;2.17;;
48941;SDS011;35340;52.378;4.648;2022-09-17T13:45:00;12.25;;;2.42;;
48941;SDS011;35340;52.378;4.648;2022-09-17T13:47:33;11.20;;;2.20;;
48941;SDS011;35340;52.378;4.648;2022-09-17T13:50:00;8.73;;;1.85;;
48941;SDS011;35340;52.378;4.648;2022-09-17T13:52:31;13.57;;;2.42;;
48941;SDS011;35340;52.378;4.648;2022-09-17T13:55:03;11.52;;;2.45;;
48941;SDS011;35340;52.378;4.648;2022-09-17T13:57:30;9.18;;;1.88;;
48941;SDS011;35340;52.378;4.648;2022-09-17T13:59:58;8.55;;;1.90;;
48941;SDS011;35340;52.378;4.648;2022-09-17T14:02:27;10.05;;;2.20;;
48941;SDS011;35340;52.378;4.648;2022-09-17T14:04:55;9.25;;;2.10;;
48941;SDS011;35340;52.378;4.648;2022-09-17T14:07:46;14.60;;;2.17;;
48941;SDS011;35340;52.378;4.648;2022-09-17T14:17:49;9.52;;;2.30;;
48941;SDS011;35340;52.378;4.648;2022-09-17T14:20:17;12.70;;;2.50;;
48941;SDS011;35340;52.378;4.648;2022-09-17T14:22:52;10.23;;;2.33;;
48941;SDS011;35340;52.378;4.648;2022-09-17T14:25:19;14.45;;;2.70;;
48941;SDS011;35340;52.378;4.648;2022-09-17T14:27:55;10.07;;;2.50;;
48941;SDS011;35340;52.378;4.648;2022-09-17T14:30:30;10.45;;;2.22;;
48941;SDS011;35340;52.378;4.648;2022-09-17T14:33:07;12.20;;;2.55;;
48941;SDS011;35340;52.378;4.648;2022-09-17T14:35:43;12.70;;;2.30;;
48941;SDS011;35340;52.378;4.648;2022-09-17T14:40:41;10.63;;;2.47;;
48941;SDS011;35340;52.378;4.648;2022-09-17T14:45:40;12.60;;;2.40;;
48941;SDS011;35340;52.378;4.648;2022-09-17T14:50:39;11.70;;;2.35;;
48941;SDS011;35340;52.378;4.648;2022-09-17T14:53:13;11.20;;;2.33;;
48941;SDS011;35340;52.378;4.648;2022-09-17T14:55:39;12.50;;;2.33;;
48941;SDS011;35340;52.378;4.648;2022-09-17T14:58:18;10.50;;;2.53;;
48941;SDS011;35340;52.378;4.648;2022-09-17T15:00:39;10.90;;;2.80;;
48941;SDS011;35340;52.378;4.648;2022-09-17T15:03:21;12.57;;;2.58;;
48941;SDS011;35340;52.378;4.648;2022-09-17T15:05:47;9.32;;;2.38;;
48941;SDS011;35340;52.378;4.648;2022-09-17T15:08:16;10.68;;;2.10;;
48941;SDS011;35340;52.378;4.648;2022-09-17T15:10:50;11.45;;;2.30;;
48941;SDS011;35340;52.378;4.648;2022-09-17T15:13:30;7.78;;;2.22;;
48941;SDS011;35340;52.378;4.648;2022-09-17T15:16:09;9.10;;;2.30;;
48941;SDS011;35340;52.378;4.648;2022-09-17T15:18:42;10.75;;;2.25;;
48941;SDS011;35340;52.378;4.648;2022-09-17T15:23:39;10.38;;;2.05;;
48941;SDS011;35340;52.378;4.648;2022-09-17T15:26:06;6.93;;;1.95;;
48941;SDS011;35340;52.378;4.648;2022-09-17T15:28:33;11.38;;;2.35;;
48941;SDS011;35340;52.378;4.648;2022-09-17T15:31:04;9.43;;;2.25;;
48941;SDS011;35340;52.378;4.648;2022-09-17T15:33:30;10.57;;;2.33;;
48941;SDS011;35340;52.378;4.648;2022-09-17T15:38:32;9.93;;;2.40;;
48941;SDS011;35340;52.378;4.648;2022-09-17T15:41:11;9.63;;;2.13;;
48941;SDS011;35340;52.378;4.648;2022-09-17T15:43:37;8.82;;;2.10;;
48941;SDS011;35340;52.378;4.648;2022-09-17T15:46:19;11.65;;;2.38;;
48941;SDS011;35340;52.378;4.648;2022-09-17T15:48:39;11.45;;;2.47;;
48941;SDS011;35340;52.378;4.648;2022-09-17T15:51:11;7.32;;;2.03;;
48941;SDS011;35340;52.378;4.648;2022-09-17T15:53:49;14.85;;;2.80;;
48941;SDS011;35340;52.378;4.648;2022-09-17T15:56:16;22.35;;;4.82;;
48941;SDS011;35340;52.378;4.648;2022-09-17T16:08:40;9.32;;;3.00;;
48941;SDS011;35340;52.378;4.648;2022-09-17T16:11:06;13.00;;;3.55;;
48941;SDS011;35340;52.378;4.648;2022-09-17T16:13:31;14.07;;;3.65;;
48941;SDS011;35340;52.378;4.648;2022-09-17T16:15:57;10.40;;;3.60;;
48941;SDS011;35340;52.378;4.648;2022-09-17T16:18:23;9.90;;;3.33;;
48941;SDS011;35340;52.378;4.648;2022-09-17T16:20:48;12.15;;;3.53;;
48941;SDS011;35340;52.378;4.648;2022-09-17T16:23:13;10.77;;;3.30;;
48941;SDS011;35340;52.378;4.648;2022-09-17T16:25:39;14.40;;;3.63;;
48941;SDS011;35340;52.378;4.648;2022-09-17T16:28:07;12.55;;;3.30;;
48941;SDS011;35340;52.378;4.648;2022-09-17T16:30:36;9.77;;;3.03;;
48941;SDS011;35340;52.378;4.648;2022-09-17T16:33:09;9.38;;;3.15;;
48941;SDS011;35340;52.378;4.648;2022-09-17T16:35:35;10.23;;;2.72;;
48941;SDS011;35340;52.378;4.648;2022-09-17T16:38:02;10.10;;;2.95;;
48941;SDS011;35340;52.378;4.648;2022-09-17T16:40:28;9.98;;;2.85;;
48941;SDS011;35340;52.378;4.648;2022-09-17T16:42:53;10.63;;;2.63;;
48941;SDS011;35340;52.378;4.648;2022-09-17T16:45:19;9.48;;;2.80;;
48941;SDS011;35340;52.378;4.648;2022-09-17T16:47:44;10.23;;;2.97;;
48941;SDS011;35340;52.378;4.648;2022-09-17T16:50:14;8.05;;;2.92;;
48941;SDS011;35340;52.378;4.648;2022-09-17T16:52:41;7.95;;;2.80;;
48941;SDS011;35340;52.378;4.648;2022-09-17T16:55:07;11.15;;;3.05;;
48941;SDS011;35340;52.378;4.648;2022-09-17T16:57:33;8.93;;;2.63;;
48941;SDS011;35340;52.378;4.648;2022-09-17T16:59:58;7.35;;;2.33;;
48941;SDS011;35340;52.378;4.648;2022-09-17T17:02:24;13.57;;;2.75;;
48941;SDS011;35340;52.378;4.648;2022-09-17T17:04:50;37.40;;;8.52;;
48941;SDS011;35340;52.378;4.648;2022-09-17T17:07:15;76.80;;;19.52;;
48941;SDS011;35340;52.378;4.648;2022-09-17T17:09:41;76.72;;;18.70;;
48941;SDS011;35340;52.378;4.648;2022-09-17T17:12:07;65.65;;;16.23;;
48941;SDS011;35340;52.378;4.648;2022-09-17T17:14:32;45.13;;;12.25;;
48941;SDS011;35340;52.378;4.648;2022-09-17T17:16:58;37.67;;;10.43;;
48941;SDS011;35340;52.378;4.648;2022-09-17T17:19:23;33.03;;;10.70;;
48941;SDS011;35340;52.378;4.648;2022-09-17T17:21:50;31.50;;;9.45;;
48941;SDS011;35340;52.378;4.648;2022-09-17T17:24:16;28.65;;;8.95;;
48941;SDS011;35340;52.378;4.648;2022-09-17T17:26:42;28.42;;;8.75;;
48941;SDS011;35340;52.378;4.648;2022-09-17T17:29:07;28.25;;;8.32;;
48941;SDS011;35340;52.378;4.648;2022-09-17T17:31:33;27.90;;;8.25;;
48941;SDS011;35340;52.378;4.648;2022-09-17T17:33:59;26.55;;;6.95;;
48941;SDS011;35340;52.378;4.648;2022-09-17T17:36:24;23.17;;;7.53;;
48941;SDS011;35340;52.378;4.648;2022-09-17T17:38:54;27.60;;;7.65;;
48941;SDS011;35340;52.378;4.648;2022-09-17T17:41:20;23.30;;;7.10;;
48941;SDS011;35340;52.378;4.648;2022-09-17T17:43:50;27.27;;;6.75;;
48941;SDS011;35340;52.378;4.648;2022-09-17T17:46:16;23.35;;;6.80;;
48941;SDS011;35340;52.378;4.648;2022-09-17T17:48:42;22.10;;;6.25;;
48941;SDS011;35340;52.378;4.648;2022-09-17T17:51:08;24.05;;;6.53;;
48941;SDS011;35340;52.378;4.648;2022-09-17T17:53:34;17.30;;;5.90;;
48941;SDS011;35340;52.378;4.648;2022-09-17T17:56:04;17.20;;;5.82;;
48941;SDS011;35340;52.378;4.648;2022-09-17T17:58:31;18.92;;;5.55;;
48941;SDS011;35340;52.378;4.648;2022-09-17T18:00:57;17.60;;;5.70;;
48941;SDS011;35340;52.378;4.648;2022-09-17T18:03:23;15.85;;;5.60;;
48941;SDS011;35340;52.378;4.648;2022-09-17T18:05:52;16.20;;;5.25;;
48941;SDS011;35340;52.378;4.648;2022-09-17T18:08:20;19.55;;;5.65;;
48941;SDS011;35340;52.378;4.648;2022-09-17T18:10:55;16.30;;;5.45;;
48941;SDS011;35340;52.378;4.648;2022-09-17T18:13:23;12.75;;;4.97;;
48941;SDS011;35340;52.378;4.648;2022-09-17T18:18:18;13.88;;;4.88;;
48941;SDS011;35340;52.378;4.648;2022-09-17T18:20:44;15.75;;;4.95;;
48941;SDS011;35340;52.378;4.648;2022-09-17T18:23:09;12.18;;;4.93;;
48941;SDS011;35340;52.378;4.648;2022-09-17T18:25:35;16.00;;;5.07;;
48941;SDS011;35340;52.378;4.648;2022-09-17T18:28:00;14.50;;;4.95;;
48941;SDS011;35340;52.378;4.648;2022-09-17T18:30:26;14.02;;;4.65;;
48941;SDS011;35340;52.378;4.648;2022-09-17T18:32:51;12.27;;;4.65;;
48941;SDS011;35340;52.378;4.648;2022-09-17T18:35:17;11.20;;;4.28;;
48941;SDS011;35340;52.378;4.648;2022-09-17T18:37:44;13.80;;;4.75;;
48941;SDS011;35340;52.378;4.648;2022-09-17T18:40:09;14.55;;;4.35;;
48941;SDS011;35340;52.378;4.648;2022-09-17T18:42:35;11.65;;;4.97;;
48941;SDS011;35340;52.378;4.648;2022-09-17T18:45:00;11.75;;;4.03;;
48941;SDS011;35340;52.378;4.648;2022-09-17T18:47:26;11.32;;;4.65;;
48941;SDS011;35340;52.378;4.648;2022-09-17T18:49:51;12.20;;;4.00;;
48941;SDS011;35340;52.378;4.648;2022-09-17T18:52:17;11.40;;;4.20;;
48941;SDS011;35340;52.378;4.648;2022-09-17T18:54:42;11.43;;;4.20;;
48941;SDS011;35340;52.378;4.648;2022-09-17T18:57:10;9.75;;;4.00;;
48941;SDS011;35340;52.378;4.648;2022-09-17T18:59:36;10.60;;;3.70;;
48941;SDS011;35340;52.378;4.648;2022-09-17T19:02:01;10.70;;;4.10;;
48941;SDS011;35340;52.378;4.648;2022-09-17T19:04:26;10.70;;;4.28;;
48941;SDS011;35340;52.378;4.648;2022-09-17T19:06:53;12.98;;;3.85;;
48941;SDS011;35340;52.378;4.648;2022-09-17T19:09:19;10.82;;;4.00;;
48941;SDS011;35340;52.378;4.648;2022-09-17T19:11:44;9.70;;;4.05;;
48941;SDS011;35340;52.378;4.648;2022-09-17T19:14:09;8.65;;;3.78;;
48941;SDS011;35340;52.378;4.648;2022-09-17T19:16:35;10.73;;;3.85;;
48941;SDS011;35340;52.378;4.648;2022-09-17T19:19:00;8.45;;;3.58;;
48941;SDS011;35340;52.378;4.648;2022-09-17T19:21:25;10.50;;;3.72;;
48941;SDS011;35340;52.378;4.648;2022-09-17T19:23:51;10.52;;;3.42;;
48941;SDS011;35340;52.378;4.648;2022-09-17T19:26:17;10.55;;;3.80;;
48941;SDS011;35340;52.378;4.648;2022-09-17T19:28:45;10.40;;;3.15;;
48941;SDS011;35340;52.378;4.648;2022-09-17T19:31:12;9.05;;;3.50;;
48941;SDS011;35340;52.378;4.648;2022-09-17T19:33:39;8.02;;;3.30;;
48941;SDS011;35340;52.378;4.648;2022-09-17T19:36:05;9.50;;;3.55;;
48941;SDS011;35340;52.378;4.648;2022-09-17T19:38:32;7.57;;;3.15;;
48941;SDS011;35340;52.378;4.648;2022-09-17T19:40:59;7.45;;;3.30;;
48941;SDS011;35340;52.378;4.648;2022-09-17T19:43:26;8.15;;;3.45;;
48941;SDS011;35340;52.378;4.648;2022-09-17T19:45:58;8.57;;;3.45;;
48941;SDS011;35340;52.378;4.648;2022-09-17T19:48:25;5.97;;;3.13;;
48941;SDS011;35340;52.378;4.648;2022-09-17T19:50:51;10.52;;;3.47;;
48941;SDS011;35340;52.378;4.648;2022-09-17T19:53:17;7.85;;;3.05;;
48941;SDS011;35340;52.378;4.648;2022-09-17T19:55:43;7.55;;;3.13;;
48941;SDS011;35340;52.378;4.648;2022-09-17T19:58:08;6.50;;;2.65;;
48941;SDS011;35340;52.378;4.648;2022-09-17T20:00:34;7.43;;;2.75;;
48941;SDS011;35340;52.378;4.648;2022-09-17T20:03:00;6.43;;;2.97;;
48941;SDS011;35340;52.378;4.648;2022-09-17T20:05:27;7.68;;;2.90;;
48941;SDS011;35340;52.378;4.648;2022-09-17T20:07:53;8.65;;;2.78;;
48941;SDS011;35340;52.378;4.648;2022-09-17T20:10:18;5.50;;;2.67;;
48941;SDS011;35340;52.378;4.648;2022-09-17T20:12:43;8.38;;;3.22;;
48941;SDS011;35340;52.378;4.648;2022-09-17T20:15:09;8.20;;;3.13;;
48941;SDS011;35340;52.378;4.648;2022-09-17T20:17:34;5.80;;;2.95;;
48941;SDS011;35340;52.378;4.648;2022-09-17T20:20:00;7.00;;;2.85;;
48941;SDS011;35340;52.378;4.648;2022-09-17T20:22:25;7.57;;;2.60;;
48941;SDS011;35340;52.378;4.648;2022-09-17T20:24:51;5.63;;;2.55;;
48941;SDS011;35340;52.378;4.648;2022-09-17T20:27:16;7.40;;;2.83;;
48941;SDS011;35340;52.378;4.648;2022-09-17T20:29:42;5.72;;;2.92;;
48941;SDS011;35340;52.378;4.648;2022-09-17T20:32:07;6.55;;;2.70;;
48941;SDS011;35340;52.378;4.648;2022-09-17T20:34:32;6.25;;;2.45;;
48941;SDS011;35340;52.378;4.648;2022-09-17T20:36:58;5.07;;;2.50;;
48941;SDS011;35340;52.378;4.648;2022-09-17T20:39:24;4.78;;;2.25;;
48941;SDS011;35340;52.378;4.648;2022-09-17T20:41:49;6.97;;;2.55;;
48941;SDS011;35340;52.378;4.648;2022-09-17T20:46:41;9.88;;;2.60;;
48941;SDS011;35340;52.378;4.648;2022-09-17T20:49:06;8.45;;;2.40;;
48941;SDS011;35340;52.378;4.648;2022-09-17T20:51:32;7.95;;;2.40;;
48941;SDS011;35340;52.378;4.648;2022-09-17T20:53:57;5.63;;;2.38;;
48941;SDS011;35340;52.378;4.648;2022-09-17T20:56:24;6.70;;;2.40;;
48941;SDS011;35340;52.378;4.648;2022-09-17T20:58:53;6.18;;;2.22;;
48941;SDS011;35340;52.378;4.648;2022-09-17T21:01:32;7.43;;;2.10;;
48941;SDS011;35340;52.378;4.648;2022-09-17T21:03:58;6.05;;;2.08;;
48941;SDS011;35340;52.378;4.648;2022-09-17T21:06:28;5.60;;;2.70;;
48941;SDS011;35340;52.378;4.648;2022-09-17T21:08:55;4.40;;;1.83;;
48941;SDS011;35340;52.378;4.648;2022-09-17T21:11:23;7.05;;;2.42;;
48941;SDS011;35340;52.378;4.648;2022-09-17T21:13:49;5.93;;;2.47;;
48941;SDS011;35340;52.378;4.648;2022-09-17T21:16:15;6.25;;;2.40;;
48941;SDS011;35340;52.378;4.648;2022-09-17T21:18:41;4.82;;;1.98;;
48941;SDS011;35340;52.378;4.648;2022-09-17T21:21:09;5.07;;;2.10;;
48941;SDS011;35340;52.378;4.648;2022-09-17T21:23:36;5.35;;;2.20;;
48941;SDS011;35340;52.378;4.648;2022-09-17T21:26:03;5.78;;;2.20;;
48941;SDS011;35340;52.378;4.648;2022-09-17T21:28:30;4.07;;;2.20;;
48941;SDS011;35340;52.378;4.648;2022-09-17T21:31:02;5.93;;;2.20;;
48941;SDS011;35340;52.378;4.648;2022-09-17T21:33:27;8.13;;;2.17;;
48941;SDS011;35340;52.378;4.648;2022-09-17T21:35:53;4.10;;;1.95;;
48941;SDS011;35340;52.378;4.648;2022-09-17T21:38:18;5.53;;;2.35;;
48941;SDS011;35340;52.378;4.648;2022-09-17T21:41:03;4.18;;;2.17;;
48941;SDS011;35340;52.378;4.648;2022-09-17T21:43:32;5.10;;;2.10;;
48941;SDS011;35340;52.378;4.648;2022-09-17T21:45:59;4.32;;;2.10;;
48941;SDS011;35340;52.378;4.648;2022-09-17T21:48:26;6.15;;;2.40;;
48941;SDS011;35340;52.378;4.648;2022-09-17T21:50:52;4.55;;;1.90;;
48941;SDS011;35340;52.378;4.648;2022-09-17T21:53:17;6.03;;;2.03;;
48941;SDS011;35340;52.378;4.648;2022-09-17T21:55:43;4.18;;;1.65;;
48941;SDS011;35340;52.378;4.648;2022-09-17T21:58:08;5.80;;;1.88;;
48941;SDS011;35340;52.378;4.648;2022-09-17T22:00:34;4.53;;;1.98;;
48941;SDS011;35340;52.378;4.648;2022-09-17T22:03:01;4.68;;;1.90;;
48941;SDS011;35340;52.378;4.648;2022-09-17T22:05:26;4.60;;;1.70;;
48941;SDS011;35340;52.378;4.648;2022-09-17T22:07:52;5.97;;;2.05;;
48941;SDS011;35340;52.378;4.648;2022-09-17T22:10:17;5.25;;;1.85;;
48941;SDS011;35340;52.378;4.648;2022-09-17T22:12:43;3.15;;;1.52;;
48941;SDS011;35340;52.378;4.648;2022-09-17T22:15:08;3.30;;;1.70;;
48941;SDS011;35340;52.378;4.648;2022-09-17T22:17:34;3.25;;;1.50;;
48941;SDS011;35340;52.378;4.648;2022-09-17T22:20:01;4.72;;;1.63;;
48941;SDS011;35340;52.378;4.648;2022-09-17T22:22:27;4.35;;;1.63;;
48941;SDS011;35340;52.378;4.648;2022-09-17T22:24:53;4.47;;;1.63;;
48941;SDS011;35340;52.378;4.648;2022-09-17T22:27:18;5.43;;;1.77;;
48941;SDS011;35340;52.378;4.648;2022-09-17T22:29:43;5.93;;;1.90;;
48941;SDS011;35340;52.378;4.648;2022-09-17T22:32:09;3.67;;;1.80;;
48941;SDS011;35340;52.378;4.648;2022-09-17T22:34:34;3.67;;;1.52;;
48941;SDS011;35340;52.378;4.648;2022-09-17T22:37:00;3.42;;;1.50;;
48941;SDS011;35340;52.378;4.648;2022-09-17T22:39:27;3.20;;;1.67;;
48941;SDS011;35340;52.378;4.648;2022-09-17T22:41:52;3.05;;;1.38;;
48941;SDS011;35340;52.378;4.648;2022-09-17T22:44:18;5.68;;;1.60;;
48941;SDS011;35340;52.378;4.648;2022-09-17T22:46:45;3.22;;;1.40;;
48941;SDS011;35340;52.378;4.648;2022-09-17T22:49:12;3.80;;;1.52;;
48941;SDS011;35340;52.378;4.648;2022-09-17T22:51:38;3.70;;;1.80;;
48941;SDS011;35340;52.378;4.648;2022-09-17T22:54:05;3.17;;;1.60;;
48941;SDS011;35340;52.378;4.648;2022-09-17T22:56:31;13.07;;;7.28;;
48941;SDS011;35340;52.378;4.648;2022-09-17T22:58:58;13.82;;;6.35;;
48941;SDS011;35340;52.378;4.648;2022-09-17T23:01:25;13.13;;;4.53;;
48941;SDS011;35340;52.378;4.648;2022-09-17T23:03:55;7.45;;;4.03;;
48941;SDS011;35340;52.378;4.648;2022-09-17T23:06:26;7.70;;;3.75;;
48941;SDS011;35340;52.378;4.648;2022-09-17T23:08:53;10.93;;;3.95;;
48941;SDS011;35340;52.378;4.648;2022-09-17T23:11:20;9.52;;;3.80;;
48941;SDS011;35340;52.378;4.648;2022-09-17T23:13:47;8.45;;;3.92;;
48941;SDS011;35340;52.378;4.648;2022-09-17T23:16:14;7.43;;;3.78;;
48941;SDS011;35340;52.378;4.648;2022-09-17T23:18:40;7.90;;;3.80;;
48941;SDS011;35340;52.378;4.648;2022-09-17T23:21:12;6.68;;;3.35;;
48941;SDS011;35340;52.378;4.648;2022-09-17T23:23:40;7.50;;;3.85;;
48941;SDS011;35340;52.378;4.648;2022-09-17T23:26:07;7.55;;;3.13;;
48941;SDS011;35340;52.378;4.648;2022-09-17T23:28:35;6.80;;;3.35;;
48941;SDS011;35340;52.378;4.648;2022-09-17T23:31:08;7.05;;;3.22;;
48941;SDS011;35340;52.378;4.648;2022-09-17T23:33:40;7.07;;;3.08;;
48941;SDS011;35340;52.378;4.648;2022-09-17T23:36:06;6.88;;;3.20;;
48941;SDS011;35340;52.378;4.648;2022-09-17T23:38:34;6.07;;;2.80;;
48941;SDS011;35340;52.378;4.648;2022-09-17T23:41:10;6.40;;;3.10;;
48941;SDS011;35340;52.378;4.648;2022-09-17T23:43:38;6.75;;;2.88;;
48941;SDS011;35340;52.378;4.648;2022-09-17T23:46:05;6.47;;;3.13;;
48941;SDS011;35340;52.378;4.648;2022-09-17T23:48:30;5.40;;;2.72;;
48941;SDS011;35340;52.378;4.648;2022-09-17T23:50:56;8.82;;;2.72;;
48941;SDS011;35340;52.378;4.648;2022-09-17T23:53:21;7.03;;;3.05;;
48941;SDS011;35340;52.378;4.648;2022-09-17T23:55:47;5.57;;;2.72;;
48941;SDS011;35340;52.378;4.648;2022-09-17T23:58:13;7.10;;;2.97;;
